Time;durP1;ratioP1;P1;durP2;ratioP2;P2;SDS_P1;SDS_P2;PMS_P1;PMS_P2;Temp;Humidity;BMP_temperature;BMP_pressure;BME280_temperature;BME280_humidity;BME280_pressure;Samples;Min_cycle;Max_cycle;Signal;HPM_P1;HPM_P2
2023/04/12 00:01:06;;;;;;;3.70;1.60;;;8.70;99.90;;;8.19;77.71;96732.06;5036064;28;20037;-50
2023/04/12 00:03:33;;;;;;;4.72;1.50;;;8.70;99.90;;;8.21;80.96;96727.59;5037468;28;20052;-50
2023/04/12 00:06:02;;;;;;;3.10;1.55;;;8.70;99.90;;;8.17;83.75;96733.88;5032410;28;20021;-46
2023/04/12 00:08:34;;;;;;;4.85;1.75;;;8.70;99.90;;;8.19;83.79;96726.81;5032362;28;20111;-49
2023/04/12 00:11:01;;;;;;;3.47;1.70;;;8.70;99.90;;;8.16;88.70;96718.19;5030664;28;20236;-50
2023/04/12 00:13:28;;;;;;;3.42;1.38;;;8.70;99.90;;;8.15;88.86;96719.97;5024683;28;20044;-49
2023/04/12 00:15:54;;;;;;;7.20;1.65;;;8.70;99.90;;;8.14;89.22;96720.88;5028523;28;20032;-47
2023/04/12 00:18:23;;;;;;;6.30;1.50;;;8.70;99.90;;;8.12;89.42;96714.81;5035662;28;20067;-47
2023/04/12 00:20:51;;;;;;;3.30;1.55;;;8.60;99.90;;;8.10;90.59;96714.03;5026397;28;20051;-47
2023/04/12 00:23:17;;;;;;;5.47;1.67;;;8.60;99.90;;;8.10;92.62;96711.41;5033201;28;20119;-49
2023/04/12 00:25:44;;;;;;;3.75;1.38;;;8.60;99.90;;;8.09;94.52;96714.91;5033527;28;20057;-51
2023/04/12 00:28:10;;;;;;;6.50;1.70;;;8.60;99.90;;;8.06;100.00;96709.81;5029297;28;20040;-48
2023/04/12 00:30:35;;;;;;;5.57;1.73;;;8.60;99.90;;;8.01;98.10;96703.88;5034766;28;20028;-50
2023/04/12 00:33:01;;;;;;;5.82;1.63;;;8.60;99.90;;;8.01;99.37;96701.25;5029559;28;20041;-51
2023/04/12 00:35:27;;;;;;;2.78;1.38;;;8.50;99.90;;;7.76;100.00;96665.41;5037253;28;20032;-51
2023/04/12 00:37:53;;;;;;;3.42;1.55;;;8.50;99.90;;;7.96;100.00;96703.19;5033745;28;20040;-48
2023/04/12 00:40:19;;;;;;;4.75;1.67;;;8.50;99.90;;;7.93;100.00;96698.03;5035232;28;21491;-51
2023/04/12 00:42:45;;;;;;;5.90;1.65;;;8.50;99.90;;;7.89;100.00;96688.56;5029325;28;20033;-48
2023/04/12 00:45:12;;;;;;;5.32;1.80;;;8.40;99.90;;;7.80;100.00;96695.03;5036565;28;20480;-51
2023/04/12 00:47:39;;;;;;;3.38;1.42;;;8.40;99.90;;;7.74;100.00;96696.09;5032465;28;20485;-50
2023/04/12 00:50:05;;;;;;;5.00;2.33;;;8.30;99.90;;;7.66;100.00;96679.78;5037404;28;20071;-50
2023/04/12 00:52:35;;;;;;;3.95;1.58;;;8.20;99.90;;;7.56;100.00;96681.03;5032763;28;20037;-47
2023/04/12 00:55:04;;;;;;;5.82;1.52;;;8.10;99.90;;;7.50;100.00;96670.75;5040009;28;20040;-51
2023/04/12 00:57:36;;;;;;;2.90;1.67;;;8.00;99.90;;;7.39;100.00;96665.91;5025079;28;20238;-51
2023/04/12 01:00:11;;;;;;;6.28;1.90;;;8.00;99.90;;;7.35;100.00;96664.31;5032633;28;20123;-49
2023/04/12 01:02:40;;;;;;;3.10;1.50;;;7.90;99.90;;;7.29;100.00;96668.00;5029979;28;20079;-52
2023/04/12 01:05:07;;;;;;;5.18;1.60;;;7.80;99.90;;;7.26;100.00;96662.88;5035186;28;20029;-50
2023/04/12 01:08:09;;;;;;;3.15;1.55;;;7.80;99.90;;;7.17;100.00;96664.03;5026792;28;20114;-51
2023/04/12 01:11:05;;;;;;;4.43;1.80;;;7.70;99.90;;;7.13;100.00;96661.59;5020604;28;20032;-50
2023/04/12 01:13:52;;;;;;;3.50;1.65;;;7.70;99.90;;;7.14;100.00;96655.44;5024230;28;20033;-48
2023/04/12 01:16:42;;;;;;;7.15;2.10;;;7.60;99.90;;;7.08;100.00;96648.63;5032593;28;20171;-47
2023/04/12 01:19:56;;;;;;;5.78;1.77;;;7.60;99.90;;;7.07;100.00;96654.81;5033414;28;20035;-51
2023/04/12 01:22:28;;;;;;;3.78;1.60;;;7.60;99.90;;;7.08;100.00;96646.84;5033907;28;20134;-50
2023/04/12 01:25:26;;;;;;;3.00;1.60;;;7.60;99.90;;;7.02;100.00;96647.09;5036385;28;20034;-50
2023/04/12 01:27:56;;;;;;;5.28;1.80;;;7.60;99.90;;;6.99;100.00;96647.19;5030005;28;20033;-51
2023/04/12 01:30:26;;;;;;;6.18;2.00;;;7.50;99.90;;;6.97;100.00;96640.28;5030375;28;20087;-50
2023/04/12 01:32:54;;;;;;;4.72;1.75;;;7.50;99.90;;;6.95;100.00;96637.72;5025924;28;20161;-50
2023/04/12 01:35:28;;;;;;;5.05;2.45;;;7.50;99.90;;;6.91;100.00;96637.88;5030562;28;20041;-50
2023/04/12 01:37:54;;;;;;;3.95;2.08;;;7.50;99.90;;;6.88;100.00;96633.59;5024703;28;20561;-47
2023/04/12 01:40:20;;;;;;;5.15;1.83;;;7.40;99.90;;;6.86;100.00;96630.19;5031258;28;20143;-49
2023/04/12 01:42:46;;;;;;;4.75;2.00;;;7.40;99.90;;;6.84;100.00;96624.16;5031111;28;20064;-49
2023/04/12 01:45:12;;;;;;;4.10;1.85;;;7.40;99.90;;;6.83;100.00;96619.78;5031569;28;20035;-48
2023/04/12 01:47:38;;;;;;;4.55;1.60;;;7.40;99.90;;;6.80;100.00;96615.53;5030006;28;20028;-50
2023/04/12 01:50:20;;;;;;;4.55;1.90;;;7.40;99.90;;;6.77;100.00;96607.75;5034800;28;20056;-48
2023/04/12 01:53:01;;;;;;;3.72;1.52;;;7.40;99.90;;;6.75;100.00;96600.84;5030114;28;20556;-47
2023/04/12 01:55:30;;;;;;;3.78;1.73;;;7.30;99.90;;;6.69;100.00;96594.94;5029095;28;20069;-47
2023/04/12 01:57:56;;;;;;;4.55;1.85;;;7.30;99.90;;;6.71;100.00;96588.75;5030931;28;20029;-47
2023/04/12 02:00:24;;;;;;;5.60;2.03;;;7.30;99.90;;;6.69;100.00;96586.19;5031099;28;21479;-48
2023/04/12 02:02:49;;;;;;;3.53;1.67;;;7.30;99.90;;;6.68;100.00;96577.50;5040838;28;20211;-49
2023/04/12 02:05:16;;;;;;;3.38;1.50;;;7.30;99.90;;;6.67;100.00;96574.91;5032582;28;20029;-50
2023/04/12 02:07:43;;;;;;;4.53;1.77;;;7.20;99.90;;;6.61;100.00;96560.28;5031696;28;20028;-49
2023/04/12 02:10:13;;;;;;;4.43;1.60;;;7.20;99.90;;;6.65;100.00;96568.88;5028860;28;20064;-50
2023/04/12 02:12:40;;;;;;;4.72;2.00;;;7.20;99.90;;;6.65;100.00;96556.63;5030496;28;20029;-48
2023/04/12 02:15:07;;;;;;;3.40;1.55;;;7.20;99.90;;;6.61;100.00;96552.41;5025027;28;20542;-50
2023/04/12 02:17:36;;;;;;;4.00;1.80;;;7.20;99.90;;;6.57;100.00;96549.94;5025576;28;20492;-51
2023/04/12 02:20:06;;;;;;;3.63;1.58;;;7.20;99.90;;;6.58;100.00;96542.03;5024936;28;20041;-50
2023/04/12 02:22:32;;;;;;;4.40;1.80;;;7.20;99.90;;;6.57;100.00;96544.69;5029665;28;20499;-50
2023/04/12 02:24:58;;;;;;;6.57;1.92;;;7.20;99.90;;;6.56;100.00;96541.22;5031630;28;20041;-46
2023/04/12 02:27:25;;;;;;;5.60;2.20;;;7.10;99.90;;;6.57;100.00;96542.97;5033149;28;20029;-47
2023/04/12 02:29:50;;;;;;;3.83;1.65;;;7.20;99.90;;;6.58;100.00;96533.31;5031930;28;20322;-48
2023/04/12 02:32:16;;;;;;;4.38;1.88;;;7.20;99.90;;;6.58;100.00;96528.94;5034001;28;20032;-51
2023/04/12 02:34:42;;;;;;;5.15;1.90;;;7.20;99.90;;;6.58;100.00;96530.69;5036361;28;20037;-46
2023/04/12 02:37:12;;;;;;;5.00;1.88;;;7.20;99.90;;;6.56;100.00;96522.03;5035566;28;20056;-47
2023/04/12 02:39:39;;;;;;;2.38;1.50;;;7.10;99.90;;;6.57;100.00;96518.50;5025484;28;20523;-47
2023/04/12 02:42:06;;;;;;;9.07;2.17;;;7.20;99.90;;;6.56;100.00;96515.03;5032825;28;20587;-49
2023/04/12 02:44:31;;;;;;;3.95;1.90;;;7.20;99.90;;;6.57;100.00;96511.53;5032489;28;20092;-46
2023/04/12 02:46:58;;;;;;;5.95;1.90;;;7.10;99.90;;;6.55;100.00;96502.00;5027086;22;20128;-41
2023/04/12 02:49:23;;;;;;;6.53;2.20;;;7.20;99.90;;;6.54;100.00;96506.38;5013839;28;20032;-41
2023/04/12 02:51:49;;;;;;;5.30;2.25;;;7.20;99.90;;;6.52;100.00;96497.72;5012554;28;20045;-42
2023/04/12 02:54:15;;;;;;;3.70;1.92;;;7.10;99.90;;;6.35;100.00;96466.88;5014837;28;20416;-42
2023/04/12 02:56:42;;;;;;;6.50;2.28;;;7.10;99.90;;;6.33;100.00;96463.44;5007402;28;21413;-41
2023/04/12 02:59:08;;;;;;;5.57;2.03;;;7.10;99.90;;;6.53;100.00;96488.94;5009932;28;20095;-41
2023/04/12 03:01:34;;;;;;;3.03;1.92;;;7.10;99.90;;;6.55;100.00;96484.53;5008575;28;20558;-42
2023/04/12 03:04:00;;;;;;;5.05;2.05;;;7.10;99.90;;;6.48;100.00;96473.41;5020110;28;20500;-41
2023/04/12 03:06:26;;;;;;;5.15;1.80;;;7.10;99.90;;;6.50;100.00;96475.97;5009552;28;20057;-42
2023/04/12 03:08:52;;;;;;;7.47;2.05;;;7.10;99.90;;;6.48;100.00;96469.94;5009424;28;20051;-41
2023/04/12 03:11:18;;;;;;;7.82;2.13;;;7.10;99.90;;;6.49;100.00;96454.13;5018554;28;20037;-42
2023/04/12 03:13:44;;;;;;;4.88;1.80;;;7.10;99.90;;;6.52;100.00;96447.97;5012476;28;20297;-41
2023/04/12 03:16:28;;;;;;;4.60;2.22;;;7.10;99.90;;;6.54;100.00;96440.03;5014163;28;20033;-41
2023/04/12 03:18:55;;;;;;;4.55;2.00;;;7.10;99.90;;;6.54;100.00;96442.66;5010335;28;20185;-41
2023/04/12 03:21:21;;;;;;;5.18;1.92;;;7.10;99.90;;;6.55;100.00;96439.13;5013327;28;20448;-41
2023/04/12 03:23:46;;;;;;;5.22;2.20;;;7.10;99.90;;;6.54;100.00;96425.19;5007507;28;20037;-41
2023/04/12 03:26:12;;;;;;;5.78;2.20;;;7.10;99.90;;;6.56;100.00;96427.75;5014351;28;20021;-41
2023/04/12 03:28:40;;;;;;;5.60;2.35;;;7.10;99.90;;;6.56;100.00;96422.50;5009145;28;20534;-41
2023/04/12 03:31:06;;;;;;;7.88;2.67;;;7.20;99.90;;;6.56;100.00;96417.25;5006104;28;20036;-41
2023/04/12 03:33:32;;;;;;;2.88;1.67;;;7.10;99.90;;;6.42;100.00;96394.19;5015526;28;20029;-41
2023/04/12 03:35:57;;;;;;;7.22;2.22;;;7.20;99.90;;;6.56;100.00;96418.09;5014177;28;20052;-41
2023/04/12 03:38:23;;;;;;;4.32;1.90;;;7.10;99.90;;;6.58;100.00;96411.03;5009908;28;20235;-41
2023/04/12 03:40:49;;;;;;;4.50;2.10;;;7.10;99.90;;;6.58;100.00;96405.81;5011846;28;20037;-41
2023/04/12 03:43:14;;;;;;;6.75;2.38;;;7.10;99.90;;;6.58;100.00;96404.97;5008906;28;20033;-39
2023/04/12 03:45:42;;;;;;;4.15;2.28;;;7.20;99.90;;;6.59;100.00;96398.81;5006693;28;20033;-39
2023/04/12 03:48:09;;;;;;;5.30;2.35;;;7.20;99.90;;;6.61;100.00;96397.00;4988655;28;20030;-39
2023/04/12 03:50:42;;;;;;;3.92;1.90;;;7.20;99.90;;;6.68;100.00;96399.31;5012838;28;20045;-39
2023/04/12 03:53:12;;;;;;;5.07;2.30;;;7.20;99.90;;;6.61;100.00;96389.97;5014113;28;20029;-39
2023/04/12 03:55:37;;;;;;;5.05;2.28;;;7.20;99.90;;;6.65;100.00;96390.72;5005442;28;20045;-40
2023/04/12 03:58:03;;;;;;;3.80;2.03;;;7.30;99.90;;;6.65;100.00;96383.72;5008753;28;20036;-40
2023/04/12 04:00:33;;;;;;;8.23;2.70;;;7.20;99.90;;;6.60;100.00;96372.53;5019914;28;20044;-40
2023/04/12 04:03:01;;;;;;;3.42;2.20;;;7.20;99.90;;;6.65;100.00;96377.63;5012171;28;20017;-40
2023/04/12 04:05:29;;;;;;;4.32;2.10;;;7.20;99.90;;;6.66;100.00;96368.88;4997993;28;20549;-39
2023/04/12 04:07:55;;;;;;;5.68;2.38;;;7.20;99.90;;;6.64;100.00;96368.03;4987432;28;20708;-39
2023/04/12 04:10:21;;;;;;;4.63;2.60;;;7.20;99.90;;;6.64;100.00;96363.69;5015910;28;20033;-39
2023/04/12 04:12:47;;;;;;;4.78;2.47;;;7.20;99.90;;;6.65;100.00;96362.75;5010822;28;20037;-40
2023/04/12 04:15:14;;;;;;;7.13;2.47;;;7.20;99.90;;;6.48;100.00;96336.38;5014582;28;20741;-40
2023/04/12 04:17:41;;;;;;;3.80;2.25;;;7.20;99.90;;;6.64;100.00;96362.81;5009770;28;20044;-40
2023/04/12 04:20:10;;;;;;;4.25;2.35;;;7.20;99.90;;;6.66;100.00;96359.22;5013698;28;20152;-40
2023/04/12 04:22:37;;;;;;;3.45;1.88;;;7.20;99.90;;;6.49;100.00;96317.94;5006536;28;20028;-39
2023/04/12 04:25:03;;;;;;;4.25;2.20;;;7.20;99.90;;;6.65;100.00;96341.78;5005892;28;20433;-40
2023/04/12 04:27:29;;;;;;;6.25;2.60;;;7.20;99.90;;;6.43;100.00;96314.72;5010702;28;20216;-40
2023/04/12 04:29:58;;;;;;;2.75;2.28;;;7.20;99.90;;;6.61;100.00;96336.75;5015352;28;20521;-40
2023/04/12 04:32:24;;;;;;;6.47;2.53;;;7.20;99.90;;;6.59;100.00;96328.94;5010953;28;20148;-40
2023/04/12 04:34:50;;;;;;;9.40;2.80;;;7.20;99.90;;;6.58;100.00;96329.00;5018094;28;20041;-40
2023/04/12 04:37:17;;;;;;;4.93;2.50;;;7.20;99.90;;;6.57;100.00;96322.91;5011872;28;20038;-40
2023/04/12 04:39:43;;;;;;;4.68;2.65;;;7.20;99.90;;;6.56;100.00;96322.97;5008611;28;20396;-39
2023/04/12 04:42:09;;;;;;;6.82;2.92;;;7.10;99.90;;;6.50;100.00;96310.97;5016121;28;20037;-40
2023/04/12 04:44:36;;;;;;;4.97;3.13;;;7.10;99.90;;;6.53;100.00;96320.44;5017700;28;20485;-40
2023/04/12 04:47:02;;;;;;;5.05;2.78;;;7.10;99.90;;;6.52;100.00;96327.47;4997974;28;20048;-40
2023/04/12 04:49:28;;;;;;;4.85;2.75;;;7.10;99.90;;;6.50;100.00;96309.19;5013809;28;20026;-40
2023/04/12 04:51:53;;;;;;;4.60;2.50;;;7.10;99.90;;;6.53;100.00;96313.44;5011069;28;20397;-40
2023/04/12 04:54:19;;;;;;;5.65;2.95;;;7.10;99.90;;;6.55;100.00;96306.41;5016749;28;20080;-40
2023/04/12 04:56:45;;;;;;;4.70;2.85;;;7.10;99.90;;;6.54;100.00;96309.06;4997388;28;20041;-40
2023/04/12 04:59:10;;;;;;;4.75;2.85;;;7.10;99.90;;;6.55;100.00;96309.03;5009506;28;20037;-40
2023/04/12 05:01:36;;;;;;;5.00;2.95;;;7.10;99.90;;;6.59;100.00;96305.38;5008778;28;20021;-39
2023/04/12 05:04:02;;;;;;;6.85;2.95;;;7.20;99.90;;;6.53;100.00;96307.34;5008838;28;20036;-40
2023/04/12 05:06:28;;;;;;;7.05;3.08;;;7.20;99.90;;;6.53;100.00;96299.50;5004514;28;20030;-39
2023/04/12 05:08:55;;;;;;;4.18;2.40;;;7.20;99.90;;;6.58;100.00;96306.25;5015838;28;20040;-39
2023/04/12 05:11:20;;;;;;;4.72;3.42;;;7.20;99.90;;;6.59;100.00;96302.75;5007418;28;20038;-39
2023/04/12 05:13:46;;;;;;;4.70;3.03;;;7.20;99.90;;;6.59;100.00;96297.50;5007374;28;20044;-39
2023/04/12 05:16:12;;;;;;;4.40;3.17;;;7.20;99.90;;;6.65;100.00;96301.66;5009896;28;20030;-40
2023/04/12 05:18:38;;;;;;;6.50;3.17;;;7.20;99.90;;;6.63;100.00;96291.22;5009186;28;20067;-41
2023/04/12 05:21:04;;;;;;;6.28;3.28;;;7.20;99.90;;;6.62;100.00;96292.16;5012186;28;20063;-40
2023/04/12 05:23:38;;;;;;;7.25;3.00;;;7.20;99.90;;;6.66;100.00;96290.28;5013001;28;20033;-40
2023/04/12 05:26:04;;;;;;;7.07;3.22;;;7.20;99.90;;;6.66;100.00;96293.72;5014160;28;20481;-40
2023/04/12 05:28:29;;;;;;;9.30;3.53;;;7.20;99.90;;;6.67;100.00;96291.97;5014542;28;20040;-39
2023/04/12 05:30:55;;;;;;;3.92;2.65;;;7.20;99.90;;;6.68;100.00;96281.41;5016687;28;20021;-40
2023/04/12 05:33:21;;;;;;;7.57;3.50;;;7.20;99.90;;;6.68;100.00;96275.34;4989084;28;20033;-39
2023/04/12 05:35:46;;;;;;;5.28;2.90;;;7.30;99.90;;;6.67;100.00;96268.38;5016072;28;20037;-40
2023/04/12 05:38:12;;;;;;;5.53;2.90;;;7.30;99.90;;;6.76;100.00;96272.41;5011882;28;20022;-40
2023/04/12 05:40:38;;;;;;;7.05;3.35;;;7.30;99.90;;;6.77;100.00;96268.88;5009455;28;20033;-40
2023/04/12 05:43:03;;;;;;;4.45;2.60;;;7.30;99.90;;;6.82;100.00;96266.91;5002147;28;20389;-40
2023/04/12 05:45:29;;;;;;;5.13;3.33;;;7.40;99.90;;;6.71;100.00;96237.66;5004126;28;20037;-39
2023/04/12 05:47:55;;;;;;;4.63;2.90;;;7.40;99.90;;;6.84;100.00;96254.63;5003890;28;20117;-40
2023/04/12 05:50:21;;;;;;;4.22;2.80;;;7.40;99.90;;;6.71;100.00;96216.72;5008201;28;20910;-40
2023/04/12 05:52:49;;;;;;;5.32;2.70;;;7.40;99.90;;;6.88;100.00;96232.59;5010257;28;20552;-40
2023/04/12 05:55:16;;;;;;;5.18;2.80;;;7.50;99.90;;;6.92;100.00;96228.94;5009524;28;20041;-41
2023/04/12 05:57:45;;;;;;;3.72;2.80;;;7.50;99.90;;;6.94;100.00;96229.72;5014037;28;20029;-40
2023/04/12 06:00:17;;;;;;;5.07;2.60;;;7.50;99.90;;;7.00;100.00;96221.63;5009765;28;20033;-40
2023/04/12 06:02:44;;;;;;;;;;;7.50;99.90;;;6.96;100.00;96206.06;5015220;28;20437;-40
2023/04/12 06:05:10;;;;;;;4.65;2.38;;;7.60;99.90;;;7.03;100.00;96218.88;5015726;28;19924;-40
2023/04/12 06:07:38;;;;;;;6.28;3.00;;;7.60;99.90;;;7.04;100.00;96210.09;5016370;28;20029;-40
2023/04/12 06:10:05;;;;;;;3.47;2.60;;;7.60;99.90;;;7.06;100.00;96203.00;4996589;28;20026;-42
2023/04/12 06:12:31;;;;;;;4.30;2.97;;;7.60;99.90;;;6.87;100.00;96161.00;5010740;28;20108;-40
2023/04/12 06:14:57;;;;;;;6.45;3.35;;;7.70;99.90;;;7.14;100.00;96200.09;4999817;28;20195;-40
2023/04/12 06:17:23;;;;;;;6.13;2.42;;;7.70;99.90;;;7.14;100.00;96189.59;5015075;28;20305;-42
2023/04/12 06:19:49;;;;;;;4.95;2.60;;;7.70;99.90;;;7.14;100.00;96183.47;5000890;28;20088;-40
2023/04/12 06:22:14;;;;;;;7.07;3.15;;;7.70;99.90;;;7.19;100.00;96192.00;5007105;28;20063;-41
2023/04/12 06:24:40;;;;;;;4.93;2.92;;;7.80;99.90;;;7.21;100.00;96188.41;5013385;28;20108;-41
2023/04/12 06:27:06;;;;;;;7.55;2.50;;;7.80;99.90;;;7.20;100.00;96172.75;5014613;28;20053;-40
2023/04/12 06:29:32;;;;;;;5.20;2.83;;;7.80;99.90;;;7.23;100.00;96167.34;5015824;28;20041;-40
2023/04/12 06:31:57;;;;;;;3.90;2.40;;;7.80;99.90;;;7.26;100.00;96178.56;5012920;28;20473;-41
2023/04/12 06:34:23;;;;;;;4.22;2.50;;;7.80;99.90;;;7.36;100.00;96172.94;5015572;28;20033;-41
2023/04/12 06:36:49;;;;;;;5.32;2.78;;;7.90;99.90;;;7.39;100.00;96167.53;5011203;28;20034;-40
2023/04/12 06:39:15;;;;;;;4.93;2.50;;;8.00;99.90;;;7.43;100.00;96156.00;5015418;28;20060;-40
2023/04/12 06:41:46;;;;;;;6.93;2.40;;;8.00;99.90;;;7.48;100.00;96151.38;5012259;28;20091;-41
2023/04/12 06:44:12;;;;;;;3.33;2.28;;;8.10;99.90;;;7.56;100.00;96144.03;5014777;28;20029;-40
2023/04/12 06:46:37;;;;;;;3.92;2.45;;;8.10;99.90;;;7.60;100.00;96144.75;5013018;28;20551;-40
2023/04/12 06:49:03;;;;;;;3.83;2.20;;;8.20;99.90;;;7.66;100.00;96144.44;5014105;28;20037;-41
2023/04/12 06:51:30;;;;;;;3.80;2.03;;;8.20;99.90;;;7.73;100.00;96140.63;5008119;28;20043;-40
2023/04/12 06:53:56;;;;;;;4.47;2.30;;;8.30;99.90;;;7.79;100.00;96135.13;5009750;28;20044;-41
2023/04/12 06:56:22;;;;;;;3.35;2.40;;;8.30;99.90;;;7.82;100.00;96128.84;5006336;28;20099;-42
2023/04/12 06:58:48;;;;;;;2.90;1.90;;;8.40;99.90;;;7.92;100.00;96131.94;5010583;28;20424;-41
2023/04/12 07:01:13;;;;;;;5.10;2.38;;;8.50;99.90;;;7.95;100.00;96123.88;5010087;28;20033;-41
2023/04/12 07:03:39;;;;;;;5.60;2.20;;;8.50;99.90;;;7.99;100.00;96112.34;5013869;28;20061;-41
2023/04/12 07:06:05;;;;;;;3.83;2.35;;;8.60;99.90;;;8.01;100.00;96102.63;5016056;28;20051;-42
2023/04/12 07:08:33;;;;;;;4.25;2.20;;;8.60;99.90;;;8.09;100.00;96100.44;5008375;28;20394;-43
2023/04/12 07:10:58;;;;;;;4.57;2.47;;;8.70;99.90;;;8.15;100.00;96109.84;5016490;28;20064;-44
2023/04/12 07:13:24;;;;;;;2.38;1.90;;;8.70;99.90;;;8.21;100.00;96104.28;5016368;28;20541;-45
2023/04/12 07:15:51;;;;;;;2.75;2.00;;;8.80;99.90;;;8.30;100.00;96088.06;5012893;28;20025;-42
2023/04/12 07:18:17;;;;;;;4.90;2.03;;;8.80;99.90;;;8.29;100.00;96086.38;5016161;28;20253;-42
2023/04/12 07:20:49;;;;;;;2.63;1.92;;;8.90;99.90;;;8.38;100.00;96083.31;5018129;28;20033;-41
2023/04/12 07:23:15;;;;;;;4.63;2.08;;;8.90;99.90;;;8.40;100.00;96076.19;5018848;28;20674;-43
2023/04/12 07:25:41;;;;;;;3.83;2.50;;;9.00;99.90;;;8.40;100.00;96076.19;5014160;28;20033;-42
2023/04/12 07:28:07;;;;;;;3.65;2.03;;;9.00;99.90;;;8.45;100.00;96088.28;5000617;28;20460;-42
2023/04/12 07:30:32;;;;;;;5.57;2.17;;;9.00;99.90;;;8.54;100.00;96075.56;5017572;28;20083;-40
2023/04/12 07:33:04;;;;;;;2.50;1.98;;;9.10;99.90;;;8.58;100.00;96055.22;5011747;28;20409;-42
2023/04/12 07:35:31;;;;;;;5.10;1.98;;;9.20;99.90;;;8.57;100.00;96064.03;4995921;28;20034;-41
2023/04/12 07:37:57;;;;;;;3.75;1.98;;;9.20;99.90;;;8.59;100.00;96055.13;5010758;28;20497;-41
2023/04/12 07:40:23;;;;;;;4.18;2.22;;;9.20;99.90;;;8.66;100.00;96049.56;5020979;28;20072;-43
2023/04/12 07:42:49;;;;;;;2.30;1.98;;;9.20;99.90;;;8.73;100.00;96036.03;5017172;28;20032;-41
2023/04/12 07:45:15;;;;;;;4.70;2.00;;;9.30;99.90;;;8.79;100.00;96019.09;5012363;28;20053;-42
2023/04/12 07:47:41;;;;;;;4.88;2.30;;;9.30;99.90;;;8.85;100.00;96004.81;5017790;28;20021;-41
2023/04/12 07:50:07;;;;;;;2.58;1.77;;;9.40;99.90;;;8.92;100.00;95998.28;5014963;28;20638;-42
2023/04/12 07:52:33;;;;;;;6.43;1.90;;;9.50;99.90;;;8.98;100.00;95993.53;5016890;28;20038;-43
2023/04/12 07:54:59;;;;;;;3.70;1.80;;;9.50;99.90;;;9.01;100.00;95989.03;5017782;28;20056;-41
2023/04/12 07:57:25;;;;;;;3.13;1.77;;;9.60;99.90;;;9.08;100.00;95993.91;5018190;28;21733;-41
2023/04/12 07:59:51;;;;;;;3.55;1.95;;;9.60;99.90;;;9.11;100.00;95995.53;5018919;28;20576;-42
2023/04/12 08:02:23;;;;;;;4.30;1.77;;;9.60;99.90;;;9.15;100.00;95986.53;5019394;28;20063;-42
2023/04/12 08:04:50;;;;;;;3.47;1.90;;;9.70;99.90;;;9.21;100.00;95980.09;5012277;28;20068;-42
2023/04/12 08:07:16;;;;;;;4.70;1.88;;;9.80;99.90;;;9.32;100.00;95981.22;5016854;28;20577;-41
2023/04/12 08:09:42;;;;;;;2.83;1.42;;;9.90;99.90;;;9.43;100.00;95985.03;5022789;28;20036;-42
2023/04/12 08:12:08;;;;;;;4.00;1.85;;;10.00;99.90;;;9.50;100.00;95991.66;5019362;28;20041;-42
2023/04/12 08:14:33;;;;;;;4.30;1.73;;;10.00;99.90;;;9.44;100.00;95982.34;5019272;28;20037;-41
2023/04/12 08:16:59;;;;;;;2.15;1.52;;;10.00;99.90;;;9.49;100.00;95982.94;5023254;28;20154;-41
2023/04/12 08:19:25;;;;;;;2.70;1.60;;;10.00;99.90;;;9.51;100.00;95978.44;5022600;28;20045;-42
2023/04/12 08:21:51;;;;;;;2.72;1.40;;;10.10;99.90;;;9.57;100.00;95981.66;5015642;28;20052;-42
2023/04/12 08:24:17;;;;;;;1.85;1.23;;;10.10;99.90;;;9.62;100.00;95980.47;5017141;28;20358;-46
2023/04/12 08:26:42;;;;;;;2.10;1.25;;;10.10;99.90;;;9.61;100.00;95976.13;5010167;28;20032;-43
2023/04/12 08:29:08;;;;;;;2.55;1.52;;;10.10;99.90;;;9.57;100.00;95971.97;5017478;28;20500;-44
2023/04/12 08:31:34;;;;;;;4.20;1.50;;;10.10;99.90;;;9.59;100.00;95978.00;5016751;28;20042;-42
2023/04/12 08:33:59;;;;;;;1.95;1.30;;;10.10;99.90;;;9.60;100.00;95960.41;4998964;28;20112;-43
2023/04/12 08:36:26;;;;;;;3.08;1.55;;;10.10;99.90;;;9.54;100.00;95962.44;5013713;28;20038;-44
2023/04/12 08:38:54;;;;;;;4.80;1.67;;;10.10;99.90;;;9.61;100.00;95967.38;5019317;28;20541;-42
2023/04/12 08:41:20;;;;;;;2.38;1.40;;;10.10;99.90;;;9.63;100.00;95968.13;5020577;28;20047;-45
2023/04/12 08:43:47;;;;;;;5.75;1.73;;;10.20;99.90;;;9.53;100.00;95965.19;5006673;28;20424;-42
2023/04/12 08:46:14;;;;;;;1.98;1.33;;;10.20;99.90;;;9.63;100.00;95962.88;5039068;23;20052;-40
2023/04/12 08:48:42;;;;;;;3.35;1.63;;;10.20;99.90;;;9.69;100.00;95976.56;5035730;28;20128;-40
2023/04/12 08:51:12;;;;;;;2.83;1.50;;;10.20;99.90;;;9.70;100.00;95970.34;5038251;28;20032;-40
2023/04/12 08:53:38;;;;;;;2.67;1.42;;;10.30;99.90;;;9.81;100.00;95966.25;5038081;28;20409;-40
2023/04/12 08:56:09;;;;;;;3.53;1.52;;;10.40;99.90;;;9.85;100.00;95968.63;5035239;28;20472;-40
2023/04/12 08:58:38;;;;;;;2.95;1.42;;;10.40;99.90;;;9.73;100.00;95940.38;5052189;28;20020;-40
2023/04/12 09:01:06;;;;;;;3.17;1.63;;;10.40;99.90;;;9.86;100.00;95961.59;5055194;28;20040;-40
2023/04/12 09:03:33;;;;;;;6.65;2.08;;;10.40;99.90;;;9.91;100.00;95965.63;5057826;28;20139;-40
2023/04/12 09:06:02;;;;;;;2.38;1.60;;;10.40;99.90;;;9.92;100.00;95967.34;5060416;28;20036;-40
2023/04/12 09:08:28;;;;;;;2.97;1.42;;;10.40;99.90;;;9.98;100.00;95941.56;5057767;28;20024;-40
2023/04/12 09:10:54;;;;;;;4.32;1.80;;;10.50;99.90;;;9.94;100.00;95948.81;5062401;28;22152;-40
2023/04/12 09:13:34;;;;;;;4.20;1.60;;;10.50;99.90;;;9.99;100.00;95935.38;5055395;28;20510;-40
2023/04/12 09:16:00;;;;;;;3.55;1.75;;;10.50;99.90;;;9.98;100.00;95929.28;5060050;28;20547;-40
2023/04/12 09:18:26;;;;;;;3.50;1.60;;;10.50;99.90;;;10.08;100.00;95937.47;5066035;28;20102;-39
2023/04/12 09:21:07;;;;;;;2.78;1.52;;;10.60;99.90;;;10.12;100.00;95926.69;5064362;28;20036;-40
2023/04/12 09:23:35;;;;;;;3.67;1.77;;;10.70;99.90;;;10.30;100.00;95932.66;5055723;28;20032;-42
2023/04/12 09:26:00;;;;;;;2.72;1.63;;;10.80;99.90;;;10.43;100.00;95935.44;5061610;28;20024;-40
2023/04/12 09:28:28;;;;;;;4.95;1.83;;;11.00;99.90;;;10.63;100.00;95926.31;5059088;28;20521;-40
2023/04/12 09:30:59;;;;;;;5.05;1.70;;;11.20;99.90;;;10.93;100.00;95928.03;5055487;28;20578;-40
2023/04/12 09:33:36;;;;;;;4.20;2.00;;;11.40;99.90;;;11.15;100.00;95924.06;5055011;28;20036;-40
2023/04/12 09:36:12;;;;;;;3.47;1.70;;;11.70;99.90;;;11.39;100.00;95932.22;5052241;28;20161;-40
2023/04/12 09:38:38;;;;;;;4.97;1.80;;;11.90;99.90;;;11.53;100.00;95924.25;5055607;28;20065;-40
2023/04/12 09:41:24;;;;;;;4.18;1.70;;;12.10;99.90;;;11.63;100.00;95933.28;5060522;28;20078;-40
2023/04/12 09:43:50;;;;;;;3.15;1.90;;;12.20;99.90;;;11.81;100.00;95925.13;5061120;28;20028;-40
2023/04/12 09:46:16;;;;;;;2.83;1.42;;;12.40;99.90;;;11.94;100.00;95935.75;5056757;28;20035;-40
2023/04/12 09:48:49;;;;;;;3.22;1.65;;;12.50;99.90;;;12.02;100.00;95928.16;5062483;28;20099;-40
2023/04/12 09:51:27;;;;;;;2.10;1.30;;;12.60;99.90;;;12.06;100.00;95940.25;5059053;28;20025;-40
2023/04/12 09:53:58;;;;;;;2.42;1.40;;;12.60;99.90;;;12.07;100.00;95930.50;5052329;28;20028;-40
2023/04/12 09:56:27;;;;;;;2.00;1.48;;;12.60;99.90;;;12.12;100.00;95926.59;5061841;28;20024;-40
2023/04/12 09:58:54;;;;;;;5.63;1.63;;;12.70;99.90;;;12.30;100.00;95910.47;5047793;28;20028;-40
2023/04/12 10:01:23;;;;;;;6.20;1.60;;;12.80;99.90;;;12.36;100.00;95902.97;5059982;28;20454;-46
2023/04/12 10:03:49;;;;;;;5.35;1.23;;;12.90;99.90;;;12.54;100.00;95908.81;5056181;28;20029;-40
2023/04/12 10:06:15;;;;;;;2.85;1.30;;;13.10;99.90;;;12.66;100.00;95895.69;5052456;28;20040;-40
2023/04/12 10:08:41;;;;;;;2.78;1.50;;;13.20;99.90;;;12.69;100.00;95896.31;5052212;28;20089;-40
2023/04/12 10:11:08;;;;;;;3.97;1.40;;;13.30;99.90;;;12.79;100.00;95899.16;5055461;28;20029;-40
2023/04/12 10:13:35;;;;;;;3.70;1.58;;;13.50;99.90;;;13.01;100.00;95901.16;5048169;28;20115;-40
2023/04/12 10:16:04;;;;;;;3.97;1.63;;;13.60;99.90;;;13.09;100.00;95903.25;5052760;28;20033;-39
2023/04/12 10:18:34;;;;;;;5.18;1.60;;;13.80;99.90;;;13.26;100.00;95904.69;5055248;28;20127;-40
2023/04/12 10:21:00;;;;;;;4.80;1.40;;;13.90;99.90;;;13.57;100.00;95903.38;5051550;28;20039;-40
2023/04/12 10:23:26;;;;;;;3.75;1.45;;;14.10;99.90;;;13.56;100.00;95899.03;5049381;28;20609;-40
2023/04/12 10:25:55;;;;;;;3.30;1.55;;;14.20;99.90;;;13.60;100.00;95899.66;5047352;28;20028;-40
2023/04/12 10:28:21;;;;;;;3.30;1.10;;;14.20;99.90;;;13.69;100.00;95891.03;5049254;28;20035;-42